OOCL Jakarta — VRGO7 — position and weather

sailwx.info

Track history (hours):
 
Tides and Currents Weather Stations Pressure Air Temp Water Temp Dewpoint Dewpoint Depression Visibility Wind Speed Wind Dir Waves Ship Positions

OOCL Jakarta

Last reported at 2017-Dec-11 16:58 UTC. Time now 2017-Dec-13 07:18 UTC.
Position N 35°36' E 139°47'.

Length 261 m; draft 9.6 m.

Type: Ship. MMSI: 477738800.

Date/timePositionNaut miles runAvg speedWind from/ knotsBaromVisibWave heightAir tempDewpointWater temp
2017-Dec-11 16:58N 35°36' E 139°47'0 0.0
2017-Dec-11 16:13N 35°36' E 139°47'0 0.0
2017-Dec-11 15:58N 35°36' E 139°47'0 0.0
2017-Dec-11 15:28N 35°36' E 139°47'0 0.0
2017-Dec-11 14:58N 35°36' E 139°47'0 0.0
2017-Dec-11 13:37N 35°36' E 139°47'0 0.0
2017-Dec-11 13:28N 35°36' E 139°47'0 0.0
2017-Dec-11 12:58N 35°36' E 139°47'0 0.0
2017-Dec-11 12:10N 35°36' E 139°47'0 0.0
2017-Dec-11 11:40N 35°36' E 139°47'0 0.0
2017-Dec-11 11:25N 35°36' E 139°47'0 0.0
2017-Dec-11 10:55N 35°36' E 139°47'0 0.0
2017-Dec-11 10:28N 35°36' E 139°47'0 0.0
2017-Dec-11 09:58N 35°36' E 139°47'0 0.0
2017-Dec-11 09:19N 35°36' E 139°47'0 0.0
2017-Dec-11 08:58N 35°36' E 139°47'0 0.0
2017-Dec-11 08:19N 35°36' E 139°47'0 0.0
2017-Dec-11 07:58N 35°36' E 139°47'0 0.0
2017-Dec-11 07:25N 35°36' E 139°47'0 0.0
2017-Dec-11 06:58N 35°36' E 139°47'0 0.0
2017-Dec-11 06:28N 35°36' E 139°47'0 0.0
2017-Dec-11 05:52N 35°36' E 139°47'0 0.0
2017-Dec-11 05:25N 35°36' E 139°47'0 0.2
2017-Dec-11 05:00N 35°36' E 139°47'3 6.2
2017-Dec-11 04:31N 35°34' E 139°49'611.1
2017-Dec-11 04:00N 35°28' E 139°51'815.2
2017-Dec-11 03:30N 35°22' E 139°45'611.6
2017-Dec-11 03:00N 35°16' E 139°46'611.5
2017-Dec-11 02:30N 35°11' E 139°46'510.0
2017-Dec-11 02:01N 35°06' E 139°45'612.0
2017-Dec-11 01:31N 35°02' E 139°39'714.9
2017-Dec-11 01:00N 34°57' E 139°33'918.1
2017-Dec-11 00:31N 34°52' E 139°23'917.2
2017-Dec-11 00:00N 34°46' E 139°16'917.2
2017-Dec-10 23:30N 34°38' E 139°11'817.1
2017-Dec-10 23:00N 34°31' E 139°05'918.1
2017-Dec-10 22:30N 34°25' E 138°57'1121.4
2017-Dec-10 21:58N 34°20' E 138°45'1021.4
2017-Dec-10 21:29N 34°15' E 138°33'1121.2
2017-Dec-10 20:59N 34°10' E 138°22'1120.6
2017-Dec-10 20:29N 34°05' E 138°11'1020.3
2017-Dec-10 20:00N 34°01' E 138°00'6220.4
2017-Dec-10 16:58N 33°32' E 136°54'39123.0
2017-Dec-10 00:00N 30°30' E 130°06'52122.3 170 / 161018.110.8 16.112.326.1
2017-Dec-09 00:38N 25°41' E 121°55'621.6
2017-Dec-09 00:21N 25°38' E 121°49'721.5
2017-Dec-09 00:00N 25°34' E 121°42'1121.7
2017-Dec-08 23:30N 25°27' E 121°32'1020.0
2017-Dec-08 23:00N 25°22' E 121°23'1019.5
2017-Dec-08 22:30N 25°17' E 121°14'1019.3
2017-Dec-08 21:59N 25°11' E 121°05'918.7
2017-Dec-08 21:30N 25°06' E 120°57'1017.8
2017-Dec-08 20:55N 24°57' E 120°50'7816.4
2017-Dec-08 16:09N 23°54' E 119°58'217.0
2017-Dec-08 16:00N 23°52' E 119°57'817.0
2017-Dec-08 15:30N 23°44' E 119°56'917.7
2017-Dec-08 15:00N 23°35' E 119°56'917.8
2017-Dec-08 14:30N 23°26' E 119°55'917.7
2017-Dec-08 14:00N 23°18' E 119°55'1517.5
2017-Dec-08 13:09N 23°03' E 119°57'317.9
2017-Dec-08 13:00N 23°00' E 119°58'918.1
2017-Dec-08 12:30N 22°52' E 120°03'918.7
2017-Dec-08 12:01N 22°44' E 120°08'918.5
2017-Dec-08 11:30N 22°36' E 120°12'713.6
2017-Dec-08 11:00N 22°33' E 120°19'1 2.8
2017-Dec-08 10:30N 22°34' E 120°18'0 0.0
2017-Dec-08 09:59N 22°34' E 120°18'0 0.0
2017-Dec-08 09:29N 22°34' E 120°18'0 0.0
2017-Dec-08 08:59N 22°34' E 120°18'0 0.0
2017-Dec-08 08:29N 22°34' E 120°18'0 0.0
2017-Dec-08 07:59N 22°34' E 120°18'0 0.0
2017-Dec-08 07:29N 22°34' E 120°18'0 0.0
2017-Dec-08 06:58N 22°34' E 120°18'0 0.0
2017-Dec-08 06:31N 22°34' E 120°18'0 0.0
2017-Dec-08 06:00N 22°34' E 120°18'0 0.0
2017-Dec-08 05:31N 22°34' E 120°18'0 0.0
2017-Dec-08 05:01N 22°34' E 120°18'0 0.0
2017-Dec-08 04:31N 22°34' E 120°18'0 0.0
2017-Dec-08 04:01N 22°34' E 120°18'0 0.0
2017-Dec-08 03:30N 22°34' E 120°18'0 0.0
2017-Dec-08 02:58N 22°34' E 120°18'0 0.0
2017-Dec-08 02:30N 22°34' E 120°18'1 2.1
2017-Dec-08 02:00N 22°34' E 120°19'3 5.8
2017-Dec-08 01:30N 22°33' E 120°16'4 7.0
2017-Dec-08 01:00N 22°32' E 120°12'4 7.8
2017-Dec-08 00:31N 22°32' E 120°08'918.2
2017-Dec-08 00:00N 22°32' E 119°58'1019.8
2017-Dec-07 23:30N 22°30' E 119°48'1118.7
2017-Dec-07 22:56N 22°27' E 119°36'30519.7
2017-Dec-07 07:28N 22°20' E 114°07'304 7.0
2017-Dec-05 12:00N 17°48' E 111°42'15512.9 090 / 121014.510.8 25.022.0
2017-Dec-05 00:00N 15°24' E 110°42'18615.5 090 / 281013.610.8 27.024.1
2017-Dec-04 12:00N 12°24' E 109°54'22718.9 090 / 221009.910.8 27.024.1
2017-Dec-04 00:00N 08°48' E 108°42'52920.2 090 / 271007.910.8 27.025.6
2017-Dec-02 21:44N 01°15' E 104°07'416.6
2017-Dec-02 21:30N 01°15' E 104°03'816.5
2017-Dec-02 21:00N 01°13' E 103°55'612.6
2017-Dec-02 20:30N 01°12' E 103°49'4 8.8
2017-Dec-02 20:00N 01°16' E 103°47'0 0.4
2017-Dec-02 19:26N 01°16' E 103°47'0 0.0
2017-Dec-02 18:56N 01°16' E 103°47'0 0.0
2017-Dec-02 18:26N 01°16' E 103°47'0 0.0
2017-Dec-02 17:56N 01°16' E 103°47'0 0.0
2017-Dec-02 17:20N 01°16' E 103°47'0 0.0
2017-Dec-02 16:50N 01°16' E 103°47'0 0.0
2017-Dec-02 16:26N 01°16' E 103°47'0 0.0
2017-Dec-02 15:50N 01°16' E 103°47'0 0.0
2017-Dec-02 15:26N 01°16' E 103°47'0 0.0
2017-Dec-02 14:56N 01°16' E 103°47'0 0.0
2017-Dec-02 14:20N 01°16' E 103°47'0 0.0
2017-Dec-02 13:56N 01°16' E 103°47'0 0.0
2017-Dec-02 13:26N 01°16' E 103°47'0 0.0
2017-Dec-02 12:56N 01°16' E 103°47'0 0.0
2017-Dec-02 12:20N 01°16' E 103°47'0 0.0
2017-Dec-02 11:56N 01°16' E 103°47'0 0.0
2017-Dec-02 11:26N 01°16' E 103°47'0 0.0
2017-Dec-02 10:56N 01°16' E 103°47'0 0.0
2017-Dec-02 10:26N 01°16' E 103°47'0 0.0
2017-Dec-02 09:50N 01°16' E 103°47'0 0.0
2017-Dec-02 09:26N 01°16' E 103°47'0 0.0
2017-Dec-02 08:56N 01°16' E 103°47'0 0.0
2017-Dec-02 08:29N 01°16' E 103°47'0 0.0
2017-Dec-02 07:59N 01°16' E 103°47'0 0.0
2017-Dec-02 07:29N 01°16' E 103°47'0 0.0
2017-Dec-02 06:56N 01°16' E 103°47'0 0.0
2017-Dec-02 06:29N 01°16' E 103°47'0 0.0
2017-Dec-02 05:59N 01°16' E 103°47'0 0.0
2017-Dec-02 05:29N 01°16' E 103°47'0 0.0
2017-Dec-02 04:56N 01°16' E 103°47'0 0.0
2017-Dec-02 04:29N 01°16' E 103°47'0 0.0
2017-Dec-02 03:59N 01°16' E 103°47'0 0.0
2017-Dec-02 03:26N 01°16' E 103°47'0 0.0
2017-Dec-02 02:59N 01°16' E 103°47'0 0.0
2017-Dec-02 02:30N 01°16' E 103°47'2 3.2
2017-Dec-02 02:00N 01°14' E 103°47'5 9.5
2017-Dec-02 01:30N 01°13' E 103°52'4 8.6
2017-Dec-02 01:00N 01°14' E 103°56'5 9.4
2017-Dec-02 00:30N 01°15' E 104°00'3 6.3
2017-Dec-02 00:00N 01°16' E 104°03'1 1.7
2017-Dec-01 23:29N 01°16' E 104°04'1 2.0
2017-Dec-01 23:00N 01°16' E 104°05'1 2.6
2017-Dec-01 22:29N 01°17' E 104°06'5 5.5
2017-Dec-01 21:38N 01°17' E 104°11'  
Track history (hours):
 
Tides and Currents Weather Stations Pressure Air Temp Water Temp Dewpoint Dewpoint Depression Visibility Wind Speed Wind Dir Waves Ship Positions

OOCL Jakarta

Last reported at 2017-Dec-11 16:58 UTC. Time now 2017-Dec-13 07:18 UTC.
Position N 35°36' E 139°47'.

Length 261 m; draft 9.6 m.

Type: Ship. MMSI: 477738800.

Date/timePositionNaut miles runAvg speedWind from/ knotsBaromVisibWave heightAir tempDewpointWater temp
2017-Dec-11 16:58N 35°36' E 139°47'0 0.0
2017-Dec-11 16:13N 35°36' E 139°47'0 0.0
2017-Dec-11 15:58N 35°36' E 139°47'0 0.0
2017-Dec-11 15:28N 35°36' E 139°47'0 0.0
2017-Dec-11 14:58N 35°36' E 139°47'0 0.0
2017-Dec-11 13:37N 35°36' E 139°47'0 0.0
2017-Dec-11 13:28N 35°36' E 139°47'0 0.0
2017-Dec-11 12:58N 35°36' E 139°47'0 0.0
2017-Dec-11 12:10N 35°36' E 139°47'0 0.0
2017-Dec-11 11:40N 35°36' E 139°47'0 0.0
2017-Dec-11 11:25N 35°36' E 139°47'0 0.0
2017-Dec-11 10:55N 35°36' E 139°47'0 0.0
2017-Dec-11 10:28N 35°36' E 139°47'0 0.0
2017-Dec-11 09:58N 35°36' E 139°47'0 0.0
2017-Dec-11 09:19N 35°36' E 139°47'0 0.0
2017-Dec-11 08:58N 35°36' E 139°47'0 0.0
2017-Dec-11 08:19N 35°36' E 139°47'0 0.0
2017-Dec-11 07:58N 35°36' E 139°47'0 0.0
2017-Dec-11 07:25N 35°36' E 139°47'0 0.0
2017-Dec-11 06:58N 35°36' E 139°47'0 0.0
2017-Dec-11 06:28N 35°36' E 139°47'0 0.0
2017-Dec-11 05:52N 35°36' E 139°47'0 0.0
2017-Dec-11 05:25N 35°36' E 139°47'0 0.2
2017-Dec-11 05:00N 35°36' E 139°47'3 6.2
2017-Dec-11 04:31N 35°34' E 139°49'611.1
2017-Dec-11 04:00N 35°28' E 139°51'815.2
2017-Dec-11 03:30N 35°22' E 139°45'611.6
2017-Dec-11 03:00N 35°16' E 139°46'611.5
2017-Dec-11 02:30N 35°11' E 139°46'510.0
2017-Dec-11 02:01N 35°06' E 139°45'612.0
2017-Dec-11 01:31N 35°02' E 139°39'714.9
2017-Dec-11 01:00N 34°57' E 139°33'918.1
2017-Dec-11 00:31N 34°52' E 139°23'917.2
2017-Dec-11 00:00N 34°46' E 139°16'917.2
2017-Dec-10 23:30N 34°38' E 139°11'817.1
2017-Dec-10 23:00N 34°31' E 139°05'918.1
2017-Dec-10 22:30N 34°25' E 138°57'1121.4
2017-Dec-10 21:58N 34°20' E 138°45'1021.4
2017-Dec-10 21:29N 34°15' E 138°33'1121.2
2017-Dec-10 20:59N 34°10' E 138°22'1120.6
2017-Dec-10 20:29N 34°05' E 138°11'1020.3
2017-Dec-10 20:00N 34°01' E 138°00'6220.4
2017-Dec-10 16:58N 33°32' E 136°54'39123.0
2017-Dec-10 00:00N 30°30' E 130°06'52122.3 170 / 161018.110.8 16.112.326.1
2017-Dec-09 00:38N 25°41' E 121°55'621.6
2017-Dec-09 00:21N 25°38' E 121°49'721.5
2017-Dec-09 00:00N 25°34' E 121°42'1121.7
2017-Dec-08 23:30N 25°27' E 121°32'1020.0
2017-Dec-08 23:00N 25°22' E 121°23'1019.5
2017-Dec-08 22:30N 25°17' E 121°14'1019.3
2017-Dec-08 21:59N 25°11' E 121°05'918.7
2017-Dec-08 21:30N 25°06' E 120°57'1017.8
2017-Dec-08 20:55N 24°57' E 120°50'7816.4
2017-Dec-08 16:09N 23°54' E 119°58'217.0
2017-Dec-08 16:00N 23°52' E 119°57'817.0
2017-Dec-08 15:30N 23°44' E 119°56'917.7
2017-Dec-08 15:00N 23°35' E 119°56'917.8
2017-Dec-08 14:30N 23°26' E 119°55'917.7
2017-Dec-08 14:00N 23°18' E 119°55'1517.5
2017-Dec-08 13:09N 23°03' E 119°57'317.9
2017-Dec-08 13:00N 23°00' E 119°58'918.1
2017-Dec-08 12:30N 22°52' E 120°03'918.7
2017-Dec-08 12:01N 22°44' E 120°08'918.5
2017-Dec-08 11:30N 22°36' E 120°12'713.6
2017-Dec-08 11:00N 22°33' E 120°19'1 2.8
2017-Dec-08 10:30N 22°34' E 120°18'0 0.0
2017-Dec-08 09:59N 22°34' E 120°18'0 0.0
2017-Dec-08 09:29N 22°34' E 120°18'0 0.0
2017-Dec-08 08:59N 22°34' E 120°18'0 0.0
2017-Dec-08 08:29N 22°34' E 120°18'0 0.0
2017-Dec-08 07:59N 22°34' E 120°18'0 0.0
2017-Dec-08 07:29N 22°34' E 120°18'0 0.0
2017-Dec-08 06:58N 22°34' E 120°18'0 0.0
2017-Dec-08 06:31N 22°34' E 120°18'0 0.0
2017-Dec-08 06:00N 22°34' E 120°18'0 0.0
2017-Dec-08 05:31N 22°34' E 120°18'0 0.0
2017-Dec-08 05:01N 22°34' E 120°18'0 0.0
2017-Dec-08 04:31N 22°34' E 120°18'0 0.0
2017-Dec-08 04:01N 22°34' E 120°18'0 0.0
2017-Dec-08 03:30N 22°34' E 120°18'0 0.0
2017-Dec-08 02:58N 22°34' E 120°18'0 0.0
2017-Dec-08 02:30N 22°34' E 120°18'1 2.1
2017-Dec-08 02:00N 22°34' E 120°19'3 5.8
2017-Dec-08 01:30N 22°33' E 120°16'4 7.0
2017-Dec-08 01:00N 22°32' E 120°12'4 7.8
2017-Dec-08 00:31N 22°32' E 120°08'918.2
2017-Dec-08 00:00N 22°32' E 119°58'1019.8
2017-Dec-07 23:30N 22°30' E 119°48'1118.7
2017-Dec-07 22:56N 22°27' E 119°36'30519.7
2017-Dec-07 07:28N 22°20' E 114°07'304 7.0
2017-Dec-05 12:00N 17°48' E 111°42'15512.9 090 / 121014.510.8 25.022.0
2017-Dec-05 00:00N 15°24' E 110°42'18615.5 090 / 281013.610.8 27.024.1
2017-Dec-04 12:00N 12°24' E 109°54'22718.9 090 / 221009.910.8 27.024.1
2017-Dec-04 00:00N 08°48' E 108°42'52920.2 090 / 271007.910.8 27.025.6
2017-Dec-02 21:44N 01°15' E 104°07'416.6
2017-Dec-02 21:30N 01°15' E 104°03'816.5
2017-Dec-02 21:00N 01°13' E 103°55'612.6
2017-Dec-02 20:30N 01°12' E 103°49'4 8.8
2017-Dec-02 20:00N 01°16' E 103°47'0 0.4
2017-Dec-02 19:26N 01°16' E 103°47'0 0.0
2017-Dec-02 18:56N 01°16' E 103°47'0 0.0
2017-Dec-02 18:26N 01°16' E 103°47'0 0.0
2017-Dec-02 17:56N 01°16' E 103°47'0 0.0
2017-Dec-02 17:20N 01°16' E 103°47'0 0.0
2017-Dec-02 16:50N 01°16' E 103°47'0 0.0
2017-Dec-02 16:26N 01°16' E 103°47'0 0.0
2017-Dec-02 15:50N 01°16' E 103°47'0 0.0
2017-Dec-02 15:26N 01°16' E 103°47'0 0.0
2017-Dec-02 14:56N 01°16' E 103°47'0 0.0
2017-Dec-02 14:20N 01°16' E 103°47'0 0.0
2017-Dec-02 13:56N 01°16' E 103°47'0 0.0
2017-Dec-02 13:26N 01°16' E 103°47'0 0.0
2017-Dec-02 12:56N 01°16' E 103°47'0 0.0
2017-Dec-02 12:20N 01°16' E 103°47'0 0.0
2017-Dec-02 11:56N 01°16' E 103°47'0 0.0
2017-Dec-02 11:26N 01°16' E 103°47'0 0.0
2017-Dec-02 10:56N 01°16' E 103°47'0 0.0
2017-Dec-02 10:26N 01°16' E 103°47'0 0.0
2017-Dec-02 09:50N 01°16' E 103°47'0 0.0
2017-Dec-02 09:26N 01°16' E 103°47'0 0.0
2017-Dec-02 08:56N 01°16' E 103°47'0 0.0
2017-Dec-02 08:29N 01°16' E 103°47'0 0.0
2017-Dec-02 07:59N 01°16' E 103°47'0 0.0
2017-Dec-02 07:29N 01°16' E 103°47'0 0.0
2017-Dec-02 06:56N 01°16' E 103°47'0 0.0
2017-Dec-02 06:29N 01°16' E 103°47'0 0.0
2017-Dec-02 05:59N 01°16' E 103°47'0 0.0
2017-Dec-02 05:29N 01°16' E 103°47'0 0.0
2017-Dec-02 04:56N 01°16' E 103°47'0 0.0
2017-Dec-02 04:29N 01°16' E 103°47'0 0.0
2017-Dec-02 03:59N 01°16' E 103°47'0 0.0
2017-Dec-02 03:26N 01°16' E 103°47'0 0.0
2017-Dec-02 02:59N 01°16' E 103°47'0 0.0
2017-Dec-02 02:30N 01°16' E 103°47'2 3.2
2017-Dec-02 02:00N 01°14' E 103°47'5 9.5
2017-Dec-02 01:30N 01°13' E 103°52'4 8.6
2017-Dec-02 01:00N 01°14' E 103°56'5 9.4
2017-Dec-02 00:30N 01°15' E 104°00'3 6.3
2017-Dec-02 00:00N 01°16' E 104°03'1 1.7
2017-Dec-01 23:29N 01°16' E 104°04'1 2.0
2017-Dec-01 23:00N 01°16' E 104°05'1 2.6
2017-Dec-01 22:29N 01°17' E 104°06'5 5.5
2017-Dec-01 21:38N 01°17' E 104°11'  

Dump ship's entire track history